Latest Coastal Weather Observations for Coconut Island

IDQ60701

Issued at 9:42 am EST Wednesday 18 October 2017 (issued every 10 minutes, with the page automatically refreshed every 10 minutes)

About coastal observations | Map of coastal stations | Coastal observations for QLD | Marine services | Other Formats
Station Details ID: 027054 Name: COCONUT ISLAND Lat: -10.05 Lon: 143.07 Height: 3.5 m
Data from the previous 72 hours. | See also: Recent months at Coconut Island
Date/Time
EST
Temp
°C
Wind Pressure Rain since
9am
mm
Weather Cloud Vis
km
Sea
Height
m
Swell
Dir  Spd
kts
Gust
kts
hPa Trend Height
m
Period
s
Dir
18/09:30am 31.8 CALM 0 2 1010.2 - 0.0 - - - - - - -
18/09:00am 30.5 SE 1 3 1010.2 - 0.0 - - - - - - -
18/08:30am 30.6 SE 1 2 1010.0 - 0.0 - - - - - - -
18/08:00am 29.0 SE 1 2 1009.7 - 0.0 - - - - - - -
18/07:30am 27.3 CALM 0 2 1009.4 - 0.0 - - - - - - -
18/07:00am 26.4 SSE 1 3 1008.9 - 0.0 - - - - - - -
18/06:30am 26.0 SSE 2 4 1008.3 - 0.0 - - - - - - -
18/06:00am 25.7 SSE 1 3 1007.9 - 0.0 - - - - - - -
18/05:30am 25.8 SSE 1 2 1007.8 - 0.0 - - - - - - -
18/05:00am 25.9 SSE 1 2 1007.5 - 0.0 - - - - - - -
18/04:30am 26.1 SSE 2 3 1007.3 - 0.0 - - - - - - -
18/04:00am 26.3 SSE 2 5 1007.0 - 0.0 - - - - - - -
18/03:30am 26.3 SSE 2 4 1007.1 - 0.0 - - - - - - -
18/03:00am 26.4 SSE 3 5 1007.0 - 0.0 - - - - - - -
18/02:30am 26.6 SSE 4 6 1006.9 - 0.0 - - - - - - -
18/02:00am 26.7 SSE 3 5 1007.1 - 0.0 - - - - - - -
18/01:30am 26.9 SSE 2 4 1007.3 - 0.0 - - - - - - -
18/01:00am 26.9 SE 1 3 1007.8 - 0.0 - - - - - - -
18/12:30am 26.8 SSE 2 5 1008.3 - 0.0 - - - - - - -
18/12:00am 26.8 SSE 2 5 1008.4 - 0.0 - - - - - - -
 
Date/Time
EST
Temp
°C
Wind Pressure Rain since
9am
mm
Weather Cloud Vis
km
Sea
Height
m
Swell
Dir  Spd
kts
Gust
kts
hPa Trend Height
m
Period
s
Dir
17/11:30pm 27.0 SSE 3 5 1008.3 - 0.0 - - - - - - -
17/11:00pm 27.1 SSE 3 4 1008.5 - 0.0 - - - - - - -
17/10:30pm 27.2 SSE 2 3 1008.3 - 0.0 - - - - - - -
17/10:00pm 27.4 SSE 3 4 1008.1 - 0.0 - - - - - - -
17/09:30pm 27.4 SSE 1 2 1007.9 - 0.0 - - - - - - -
17/09:00pm 27.3 CALM 0 1 1007.8 - 0.0 - - - - - - -
17/08:30pm 27.1 CALM 0 1 1007.4 - 0.0 - - - - - - -
17/08:00pm 27.3 SSE 1 3 1007.3 - 0.0 - - - - - - -
17/07:30pm 27.5 CALM 0 0 1006.8 - 0.0 - - - - - - -
17/07:00pm 27.6 CALM 0 0 1006.5 - 0.0 - - - - - - -
17/06:30pm 27.7 CALM 0 0 1006.2 - 0.0 - - - - - - -
17/06:00pm 28.4 CALM 0 1 1006.1 - 0.0 - - - - - - -
17/05:30pm 29.5 CALM 0 0 1005.9 - 0.0 - - - - - - -
17/05:00pm 30.6 CALM 0 2 1005.8 - 0.0 - - - - - - -
17/04:30pm 31.1 SSW 1 3 1005.5 - 0.0 - - - - - - -
17/04:00pm 31.0 SW 1 4 1005.2 - 0.0 - - - - - - -
17/03:30pm 31.6 SSW 2 3 1005.5 - 0.0 - - - - - - -
17/03:00pm 32.1 SSW 2 5 1005.8 - 0.0 - - - - - - -
17/02:30pm 31.9 SSW 2 3 1005.9 - 0.0 - - - - - - -
17/02:00pm 31.9 S 2 4 1006.4 - 0.0 - - - - - - -
17/01:30pm 33.0 SSW 1 3 1006.9 - 0.0 - - - - - - -
17/01:00pm 31.4 SW 4 6 1007.4 - 0.0 - - - - - - -
17/12:30pm 32.1 SW 4 6 1008.0 - 0.0 - - - - - - -
17/12:00pm 30.5 WNW 4 7 1008.7 - 0.0 - - - - - - -
17/11:30am 31.1 WNW 5 7 1008.9 - 0.0 - - - - - - -
17/11:00am 30.2 WNW 4 6 1009.3 - 0.0 - - - - - - -
17/10:30am 30.1 NW 4 6 1009.5 - 0.0 - - - - - - -
17/10:00am 28.0 NW 3 4 1009.8 - 0.0 - - - - - - -
17/09:30am 28.2 NW 3 4 1009.8 - 0.0 - - - - - - -
17/09:00am 29.9 NE 2 4 1009.5 - 0.0 - - - - - - -
17/08:30am 28.8 ENE 3 5 1009.2 - 0.0 - - - - - - -
17/08:00am 27.5 ENE 4 5 1008.5 - 0.0 - - - - - - -
17/07:30am 27.2 ENE 3 5 1008.2 - 0.0 - - - - - - -
17/07:00am 26.7 ENE 3 5 1007.9 - 0.0 - - - - - - -
17/06:30am 25.9 ENE 2 3 1007.5 - 0.0 - - - - - - -
17/06:00am 25.7 ENE 2 3 1007.0 - 0.0 - - - - - - -
17/05:30am 25.7 CALM 0 1 1006.8 - 0.0 - - - - - - -
17/05:00am 26.1 CALM 0 1 1006.6 - 0.0 - - - - - - -
17/04:30am 25.9 E 1 3 1006.2 - 0.0 - - - - - - -
17/04:00am 26.2 ENE 2 4 1006.0 - 0.0 - - - - - - -
17/03:30am 26.1 E 2 4 1006.1 - 0.0 - - - - - - -
17/03:00am 26.2 CALM 0 3 1006.3 - 0.0 - - - - - - -
17/02:30am 26.3 CALM 0 2 1006.5 - 0.0 - - - - - - -
17/02:00am 26.3 CALM 0 3 1006.5 - 0.0 - - - - - - -
17/01:30am 26.4 ESE 1 3 1007.2 - 0.0 - - - - - - -
17/01:00am 26.5 ESE 2 4 1007.6 - 0.0 - - - - - - -
17/12:30am 26.6 E 3 6 1008.2 - 0.0 - - - - - - -
17/12:00am 26.6 ESE 2 5 1008.6 - 0.0 - - - - - - -
 
Date/Time
EST
Temp
°C
Wind Pressure Rain since
9am
mm
Weather Cloud Vis
km
Sea
Height
m
Swell
Dir  Spd
kts
Gust
kts
hPa Trend Height
m
Period
s
Dir
16/11:30pm 26.6 SE 2 5 1008.9 - 0.0 - - - - - - -
16/11:00pm 26.7 ESE 3 7 1008.8 - 0.0 - - - - - - -
16/10:30pm 26.9 SE 1 4 1009.0 - 0.0 - - - - - - -
16/10:00pm 26.9 SE 1 4 1008.6 - 0.0 - - - - - - -
16/09:30pm 26.9 SE 2 7 1008.6 - 0.0 - - - - - - -
16/09:00pm 27.0 SE 1 5 1008.1 - 0.0 - - - - - - -
16/08:30pm 26.8 ESE 3 6 1007.7 - 0.0 - - - - - - -
16/08:00pm 26.8 ESE 4 7 1007.2 - 0.0 - - - - - - -
16/07:30pm 26.9 ESE 3 6 1006.6 - 0.0 - - - - - - -
16/07:00pm 27.2 SE 1 4 1006.0 - 0.0 - - - - - - -
16/06:30pm 27.3 SE 2 5 1005.8 - 0.0 - - - - - - -
16/06:00pm 27.7 ESE 2 5 1005.4 - 0.0 - - - - - - -
16/05:30pm 28.2 SE 1 4 1005.5 - 0.0 - - - - - - -
16/05:00pm 29.3 SE 2 5 1005.5 - 0.0 - - - - - - -
16/04:30pm 30.0 SE 1 3 1005.8 - 0.0 - - - - - - -
16/04:00pm 30.0 SSE 1 5 1005.6 - 0.0 - - - - - - -
16/03:30pm 29.9 SE 2 5 1005.6 - 0.0 - - - - - - -
16/03:00pm 29.2 CALM 0 3 1006.1 - 0.0 - - - - - - -
16/02:30pm 29.6 SSE 1 3 1006.3 - 0.0 - - - - - - -
16/02:00pm 29.9 SSE 1 4 1006.6 - 0.0 - - - - - - -
16/01:30pm 32.4 SE 1 3 1007.0 - 0.0 - - - - - - -
16/01:00pm 29.8 CALM 0 4 1007.4 - 0.0 - - - - - - -
16/12:30pm 30.3 CALM 0 1 1008.0 - 0.0 - - - - - - -
16/12:00pm 32.3 CALM 0 2 1008.2 - 0.0 - - - - - - -
16/11:30am 30.6 SSE 1 3 1008.7 - 0.0 - - - - - - -
16/11:00am 31.1 CALM 0 2 1009.2 - 0.0 - - - - - - -
16/10:30am 31.9 SSE 1 3 1009.3 - 0.0 - - - - - - -
16/10:00am 31.7 SSE 1 3 1009.5 - 0.0 - - - - - - -
16/09:30am 31.1 SE 1 3 1009.6 - 0.0 - - - - - - -
16/09:00am 29.3 SSE 1 3 1009.8 - 0.0 - - - - - - -
16/08:30am 28.1 SSE 1 2 1009.4 - 0.0 - - - - - - -
16/08:00am 27.7 SSE 1 3 1009.1 - 0.0 - - - - - - -
16/07:30am 27.1 SSE 1 2 1008.7 - 0.0 - - - - - - -
16/07:00am 26.6 SSE 1 2 1008.2 - 0.0 - - - - - - -
16/06:30am 26.3 SSE 1 2 1007.7 - 0.0 - - - - - - -
16/06:00am 26.0 SSE 1 4 1007.2 - 0.0 - - - - - - -
16/05:30am 26.2 SSE 2 3 1007.0 - 0.0 - - - - - - -
16/05:00am 26.1 SSE 1 3 1006.6 - 0.0 - - - - - - -
16/04:30am 26.1 CALM 0 2 1006.5 - 0.0 - - - - - - -
16/04:00am 26.2 SSE 2 3 1006.1 - 0.0 - - - - - - -
16/03:30am 26.2 SSE 2 3 1006.1 - 0.0 - - - - - - -
16/03:00am 26.1 SSE 2 3 1006.2 - 0.0 - - - - - - -
16/02:30am 26.1 SSE 1 3 1006.3 - 0.0 - - - - - - -
16/02:00am 26.2 SSE 1 2 1006.7 - 0.0 - - - - - - -
16/01:30am 26.2 SSE 1 3 1006.8 - 0.0 - - - - - - -
16/01:00am 26.6 SE 1 3 1006.9 - 0.0 - - - - - - -
16/12:30am 26.9 SSE 1 2 1007.1 - 0.0 - - - - - - -
16/12:00am 27.1 SE 2 3 1007.5 - 0.0 - - - - - - -
 
Date/Time
EST
Temp
°C
Wind Pressure Rain since
9am
mm
Weather Cloud Vis
km
Sea
Height
m
Swell
Dir  Spd
kts
Gust
kts
hPa Trend Height
m
Period
s
Dir
15/11:30pm 26.9 SSE 1 3 1007.6 - 0.0 - - - - - - -
15/11:00pm 26.9 SSE 2 3 1007.6 - 0.0 - - - - - - -
15/10:30pm 26.8 SSE 2 3 1007.6 - 0.0 - - - - - - -
15/10:00pm 26.6 SSE 2 4 1007.4 - 0.0 - - - - - - -
15/09:30pm 26.7 SSE 3 5 1007.1 - 0.0 - - - - - - -
15/09:00pm 26.7 SSE 3 6 1006.6 - 0.0 - - - - - - -
15/08:30pm 26.9 SSE 4 6 1006.4 - 0.0 - - - - - - -
15/08:00pm 26.9 SSE 4 6 1006.0 - 0.0 - - - - - - -
15/07:30pm 27.1 SSE 4 6 1005.6 - 0.0 - - - - - - -
15/07:00pm 27.3 SSE 3 5 1005.4 - 0.0 - - - - - - -
15/06:30pm 27.4 SSE 2 4 1005.0 - 0.0 - - - - - - -
15/06:00pm 27.6 SSE 2 4 1004.8 - 0.0 - - - - - - -
15/05:30pm 28.5 SE 1 3 1004.8 - 0.0 - - - - - - -
15/05:00pm 29.0 SE 1 5 1004.6 - 0.0 - - - - - - -
15/04:30pm 29.6 SE 2 5 1004.5 - 0.0 - - - - - - -
15/04:00pm 30.9 SSE 1 3 1004.6 - 0.0 - - - - - - -
15/03:30pm 31.7 SSE 2 3 1004.6 - 0.0 - - - - - - -
15/03:00pm 32.1 SSE 2 4 1004.7 - 0.0 - - - - - - -
15/02:30pm 32.4 SSE 2 4 1005.0 - 0.0 - - - - - - -
15/02:00pm 32.4 SSE 2 4 1005.2 - 0.0 - - - - - - -
15/01:30pm 32.8 SSE 1 3 1005.7 - 0.0 - - - - - - -
15/01:00pm 32.8 SSE 2 4 1006.0 - 0.0 - - - - - - -
15/12:30pm 33.1 SSE 1 3 1006.5 - 0.0 - - - - - - -
15/12:00pm 32.1 SSE 1 3 1007.3 - 0.0 - - - - - - -
15/11:30am 31.4 CALM 0 2 1007.6 - 0.0 - - - - - - -
15/11:00am 31.3 SE 1 6 1008.0 - 0.0 - - - - - - -
15/10:30am 31.8 SE 1 3 1008.5 - 0.0 - - - - - - -
15/10:00am 31.4 SSE 2 3 1008.6 - 0.0 - - - - - - -

Other Formats:

Comma delimited format used in spreadsheet applications
http://www.bom.gov.au/fwo/IDQ60701/IDQ60701.94182.axf

JavaScript Object Notation format (JSON) in row-major order
http://www.bom.gov.au/fwo/IDQ60701/IDQ60701.94182.json